sensor_id;sensor_type;location;lat;lon;timestamp;P1;durP1;ratioP1;P2;durP2;ratioP2
75342;SDS011;63936;51.006;13.764;2023-07-13T00:00:03;6;;;2;;
75342;SDS011;63936;51.006;13.764;2023-07-13T00:02:03;5;;;2;;
75342;SDS011;63936;51.006;13.764;2023-07-13T00:04:04;5;;;2;;
75342;SDS011;63936;51.006;13.764;2023-07-13T00:06:04;4;;;1;;
75342;SDS011;63936;51.006;13.764;2023-07-13T00:08:03;4;;;2;;
75342;SDS011;63936;51.006;13.764;2023-07-13T00:10:09;5;;;2;;
75342;SDS011;63936;51.006;13.764;2023-07-13T00:12:02;6;;;2;;
75342;SDS011;63936;51.006;13.764;2023-07-13T00:14:02;5;;;1;;
75342;SDS011;63936;51.006;13.764;2023-07-13T00:16:04;6;;;1;;
75342;SDS011;63936;51.006;13.764;2023-07-13T00:18:02;4;;;1;;
75342;SDS011;63936;51.006;13.764;2023-07-13T00:20:08;6;;;2;;
75342;SDS011;63936;51.006;13.764;2023-07-13T00:22:02;4;;;1;;
75342;SDS011;63936;51.006;13.764;2023-07-13T00:24:03;4;;;2;;
75342;SDS011;63936;51.006;13.764;2023-07-13T00:26:03;6;;;2;;
75342;SDS011;63936;51.006;13.764;2023-07-13T00:28:04;4;;;1;;
75342;SDS011;63936;51.006;13.764;2023-07-13T00:30:05;6;;;2;;
75342;SDS011;63936;51.006;13.764;2023-07-13T00:32:03;5;;;2;;
75342;SDS011;63936;51.006;13.764;2023-07-13T00:34:02;12;;;2;;
75342;SDS011;63936;51.006;13.764;2023-07-13T00:36:01;5;;;2;;
75342;SDS011;63936;51.006;13.764;2023-07-13T00:38:02;5;;;2;;
75342;SDS011;63936;51.006;13.764;2023-07-13T00:40:05;5;;;2;;
75342;SDS011;63936;51.006;13.764;2023-07-13T00:42:02;6;;;2;;
75342;SDS011;63936;51.006;13.764;2023-07-13T00:44:01;6;;;2;;
75342;SDS011;63936;51.006;13.764;2023-07-13T00:46:09;5;;;2;;
75342;SDS011;63936;51.006;13.764;2023-07-13T00:48:02;5;;;2;;
75342;SDS011;63936;51.006;13.764;2023-07-13T00:50:03;5;;;2;;
75342;SDS011;63936;51.006;13.764;2023-07-13T00:52:02;6;;;2;;
75342;SDS011;63936;51.006;13.764;2023-07-13T00:54:03;6;;;2;;
75342;SDS011;63936;51.006;13.764;2023-07-13T00:56:02;7;;;2;;
75342;SDS011;63936;51.006;13.764;2023-07-13T00:58:02;7;;;2;;
75342;SDS011;63936;51.006;13.764;2023-07-13T01:00:05;8;;;3;;
75342;SDS011;63936;51.006;13.764;2023-07-13T01:02:03;7;;;3;;
75342;SDS011;63936;51.006;13.764;2023-07-13T01:04:02;8;;;3;;
75342;SDS011;63936;51.006;13.764;2023-07-13T01:06:02;7;;;3;;
75342;SDS011;63936;51.006;13.764;2023-07-13T01:08:02;7;;;3;;
75342;SDS011;63936;51.006;13.764;2023-07-13T01:10:01;7;;;3;;
75342;SDS011;63936;51.006;13.764;2023-07-13T01:12:01;8;;;3;;
75342;SDS011;63936;51.006;13.764;2023-07-13T01:14:01;9;;;4;;
75342;SDS011;63936;51.006;13.764;2023-07-13T01:16:02;8;;;4;;
75342;SDS011;63936;51.006;13.764;2023-07-13T01:18:01;7;;;4;;
75342;SDS011;63936;51.006;13.764;2023-07-13T01:20:03;7;;;4;;
75342;SDS011;63936;51.006;13.764;2023-07-13T01:22:01;8;;;4;;
75342;SDS011;63936;51.006;13.764;2023-07-13T01:24:01;9;;;4;;
75342;SDS011;63936;51.006;13.764;2023-07-13T01:26:02;7;;;4;;
75342;SDS011;63936;51.006;13.764;2023-07-13T01:28:02;7;;;3;;
75342;SDS011;63936;51.006;13.764;2023-07-13T01:30:03;7;;;3;;
75342;SDS011;63936;51.006;13.764;2023-07-13T01:32:02;7;;;3;;
75342;SDS011;63936;51.006;13.764;2023-07-13T01:34:02;6;;;3;;
75342;SDS011;63936;51.006;13.764;2023-07-13T01:36:01;6;;;3;;
75342;SDS011;63936;51.006;13.764;2023-07-13T01:38:01;6;;;3;;
75342;SDS011;63936;51.006;13.764;2023-07-13T01:40:03;7;;;4;;
75342;SDS011;63936;51.006;13.764;2023-07-13T01:42:01;8;;;4;;
75342;SDS011;63936;51.006;13.764;2023-07-13T01:44:01;7;;;4;;
75342;SDS011;63936;51.006;13.764;2023-07-13T01:46:02;8;;;4;;
75342;SDS011;63936;51.006;13.764;2023-07-13T01:48:02;9;;;4;;
75342;SDS011;63936;51.006;13.764;2023-07-13T01:50:01;7;;;4;;
75342;SDS011;63936;51.006;13.764;2023-07-13T01:52:01;8;;;4;;
75342;SDS011;63936;51.006;13.764;2023-07-13T01:54:01;8;;;4;;
75342;SDS011;63936;51.006;13.764;2023-07-13T01:56:01;8;;;4;;
75342;SDS011;63936;51.006;13.764;2023-07-13T01:58:02;7;;;4;;
75342;SDS011;63936;51.006;13.764;2023-07-13T02:00:03;8;;;4;;
75342;SDS011;63936;51.006;13.764;2023-07-13T02:02:02;7;;;4;;
75342;SDS011;63936;51.006;13.764;2023-07-13T02:04:02;7;;;4;;
75342;SDS011;63936;51.006;13.764;2023-07-13T02:06:01;7;;;4;;
75342;SDS011;63936;51.006;13.764;2023-07-13T02:08:01;8;;;3;;
75342;SDS011;63936;51.006;13.764;2023-07-13T02:10:03;10;;;3;;
75342;SDS011;63936;51.006;13.764;2023-07-13T02:12:01;9;;;3;;
75342;SDS011;63936;51.006;13.764;2023-07-13T02:14:01;7;;;3;;
75342;SDS011;63936;51.006;13.764;2023-07-13T02:16:02;7;;;4;;
75342;SDS011;63936;51.006;13.764;2023-07-13T02:18:01;8;;;4;;
75342;SDS011;63936;51.006;13.764;2023-07-13T02:20:02;8;;;4;;
75342;SDS011;63936;51.006;13.764;2023-07-13T02:22:01;9;;;4;;
75342;SDS011;63936;51.006;13.764;2023-07-13T02:24:01;9;;;4;;
75342;SDS011;63936;51.006;13.764;2023-07-13T02:26:03;8;;;3;;
75342;SDS011;63936;51.006;13.764;2023-07-13T02:28:02;7;;;3;;
75342;SDS011;63936;51.006;13.764;2023-07-13T02:30:02;10;;;4;;
75342;SDS011;63936;51.006;13.764;2023-07-13T02:32:01;14;;;4;;
75342;SDS011;63936;51.006;13.764;2023-07-13T02:34:01;7;;;4;;
75342;SDS011;63936;51.006;13.764;2023-07-13T02:36:01;6;;;4;;
75342;SDS011;63936;51.006;13.764;2023-07-13T02:38:01;10;;;4;;
75342;SDS011;63936;51.006;13.764;2023-07-13T02:40:04;8;;;4;;
75342;SDS011;63936;51.006;13.764;2023-07-13T02:42:01;7;;;3;;
75342;SDS011;63936;51.006;13.764;2023-07-13T02:44:02;7;;;4;;
75342;SDS011;63936;51.006;13.764;2023-07-13T02:46:02;7;;;3;;
75342;SDS011;63936;51.006;13.764;2023-07-13T02:48:02;7;;;3;;
75342;SDS011;63936;51.006;13.764;2023-07-13T02:50:03;6;;;3;;
75342;SDS011;63936;51.006;13.764;2023-07-13T02:52:02;8;;;3;;
75342;SDS011;63936;51.006;13.764;2023-07-13T02:54:01;7;;;4;;
75342;SDS011;63936;51.006;13.764;2023-07-13T02:56:02;9;;;4;;
75342;SDS011;63936;51.006;13.764;2023-07-13T02:58:02;8;;;4;;
75342;SDS011;63936;51.006;13.764;2023-07-13T03:00:03;8;;;4;;
75342;SDS011;63936;51.006;13.764;2023-07-13T03:02:02;8;;;4;;
75342;SDS011;63936;51.006;13.764;2023-07-13T03:04:03;8;;;5;;
75342;SDS011;63936;51.006;13.764;2023-07-13T03:06:02;8;;;4;;
75342;SDS011;63936;51.006;13.764;2023-07-13T03:08:01;9;;;4;;
75342;SDS011;63936;51.006;13.764;2023-07-13T03:10:04;7;;;4;;
75342;SDS011;63936;51.006;13.764;2023-07-13T03:12:01;7;;;4;;
75342;SDS011;63936;51.006;13.764;2023-07-13T03:14:01;7;;;4;;
75342;SDS011;63936;51.006;13.764;2023-07-13T03:16:01;7;;;4;;
75342;SDS011;63936;51.006;13.764;2023-07-13T03:18:01;9;;;4;;
75342;SDS011;63936;51.006;13.764;2023-07-13T03:20:02;9;;;4;;
75342;SDS011;63936;51.006;13.764;2023-07-13T03:22:01;8;;;4;;
75342;SDS011;63936;51.006;13.764;2023-07-13T03:24:01;7;;;4;;
75342;SDS011;63936;51.006;13.764;2023-07-13T03:26:01;8;;;4;;
75342;SDS011;63936;51.006;13.764;2023-07-13T03:28:01;9;;;4;;
75342;SDS011;63936;51.006;13.764;2023-07-13T03:30:03;9;;;4;;
75342;SDS011;63936;51.006;13.764;2023-07-13T03:32:01;8;;;4;;
75342;SDS011;63936;51.006;13.764;2023-07-13T03:34:01;9;;;4;;
75342;SDS011;63936;51.006;13.764;2023-07-13T03:36:01;7;;;4;;
75342;SDS011;63936;51.006;13.764;2023-07-13T03:38:01;8;;;4;;
75342;SDS011;63936;51.006;13.764;2023-07-13T03:40:03;8;;;5;;
75342;SDS011;63936;51.006;13.764;2023-07-13T03:42:01;7;;;4;;
75342;SDS011;63936;51.006;13.764;2023-07-13T03:44:01;7;;;4;;
75342;SDS011;63936;51.006;13.764;2023-07-13T03:46:02;8;;;5;;
75342;SDS011;63936;51.006;13.764;2023-07-13T03:48:02;8;;;5;;
75342;SDS011;63936;51.006;13.764;2023-07-13T03:50:02;9;;;5;;
75342;SDS011;63936;51.006;13.764;2023-07-13T03:52:01;8;;;5;;
75342;SDS011;63936;51.006;13.764;2023-07-13T03:54:02;8;;;4;;
75342;SDS011;63936;51.006;13.764;2023-07-13T03:56:02;8;;;4;;
75342;SDS011;63936;51.006;13.764;2023-07-13T03:58:23;7;;;4;;
75342;SDS011;63936;51.006;13.764;2023-07-13T04:00:03;8;;;4;;
75342;SDS011;63936;51.006;13.764;2023-07-13T04:02:03;8;;;4;;
75342;SDS011;63936;51.006;13.764;2023-07-13T04:04:02;13;;;5;;
75342;SDS011;63936;51.006;13.764;2023-07-13T04:06:02;13;;;5;;
75342;SDS011;63936;51.006;13.764;2023-07-13T04:08:02;10;;;5;;
75342;SDS011;63936;51.006;13.764;2023-07-13T04:10:04;10;;;5;;
75342;SDS011;63936;51.006;13.764;2023-07-13T04:12:02;9;;;4;;
75342;SDS011;63936;51.006;13.764;2023-07-13T04:14:02;9;;;4;;
75342;SDS011;63936;51.006;13.764;2023-07-13T04:16:02;8;;;4;;
75342;SDS011;63936;51.006;13.764;2023-07-13T04:18:02;9;;;4;;
75342;SDS011;63936;51.006;13.764;2023-07-13T04:20:03;7;;;4;;
75342;SDS011;63936;51.006;13.764;2023-07-13T04:22:02;7;;;4;;
75342;SDS011;63936;51.006;13.764;2023-07-13T04:24:01;6;;;3;;
75342;SDS011;63936;51.006;13.764;2023-07-13T04:26:02;6;;;4;;
75342;SDS011;63936;51.006;13.764;2023-07-13T04:28:02;7;;;4;;
75342;SDS011;63936;51.006;13.764;2023-07-13T04:30:06;8;;;4;;
75342;SDS011;63936;51.006;13.764;2023-07-13T04:32:01;7;;;4;;
75342;SDS011;63936;51.006;13.764;2023-07-13T04:34:01;8;;;4;;
75342;SDS011;63936;51.006;13.764;2023-07-13T04:36:01;9;;;4;;
75342;SDS011;63936;51.006;13.764;2023-07-13T04:38:02;9;;;4;;
75342;SDS011;63936;51.006;13.764;2023-07-13T04:40:06;7;;;4;;
75342;SDS011;63936;51.006;13.764;2023-07-13T04:42:01;8;;;4;;
75342;SDS011;63936;51.006;13.764;2023-07-13T04:44:01;10;;;4;;
75342;SDS011;63936;51.006;13.764;2023-07-13T04:46:03;8;;;4;;
75342;SDS011;63936;51.006;13.764;2023-07-13T04:48:02;8;;;5;;
75342;SDS011;63936;51.006;13.764;2023-07-13T04:50:03;8;;;4;;
75342;SDS011;63936;51.006;13.764;2023-07-13T04:52:02;8;;;4;;
75342;SDS011;63936;51.006;13.764;2023-07-13T04:54:02;9;;;4;;
75342;SDS011;63936;51.006;13.764;2023-07-13T04:56:02;7;;;4;;
75342;SDS011;63936;51.006;13.764;2023-07-13T04:58:01;6;;;4;;
75342;SDS011;63936;51.006;13.764;2023-07-13T05:00:03;8;;;4;;
75342;SDS011;63936;51.006;13.764;2023-07-13T05:02:02;8;;;4;;
75342;SDS011;63936;51.006;13.764;2023-07-13T05:04:01;7;;;4;;
75342;SDS011;63936;51.006;13.764;2023-07-13T05:06:02;7;;;4;;
75342;SDS011;63936;51.006;13.764;2023-07-13T05:08:01;7;;;4;;
75342;SDS011;63936;51.006;13.764;2023-07-13T05:10:04;7;;;4;;
75342;SDS011;63936;51.006;13.764;2023-07-13T05:12:02;7;;;4;;
75342;SDS011;63936;51.006;13.764;2023-07-13T05:14:02;6;;;4;;
75342;SDS011;63936;51.006;13.764;2023-07-13T05:16:03;8;;;3;;
75342;SDS011;63936;51.006;13.764;2023-07-13T05:18:02;10;;;4;;
75342;SDS011;63936;51.006;13.764;2023-07-13T05:20:03;7;;;3;;
75342;SDS011;63936;51.006;13.764;2023-07-13T05:22:01;6;;;3;;
75342;SDS011;63936;51.006;13.764;2023-07-13T05:24:01;8;;;3;;
75342;SDS011;63936;51.006;13.764;2023-07-13T05:26:02;6;;;3;;
75342;SDS011;63936;51.006;13.764;2023-07-13T05:28:01;6;;;3;;
75342;SDS011;63936;51.006;13.764;2023-07-13T05:30:04;7;;;3;;
75342;SDS011;63936;51.006;13.764;2023-07-13T05:32:01;6;;;3;;
75342;SDS011;63936;51.006;13.764;2023-07-13T05:34:01;6;;;3;;
75342;SDS011;63936;51.006;13.764;2023-07-13T05:36:01;9;;;3;;
75342;SDS011;63936;51.006;13.764;2023-07-13T05:38:01;11;;;3;;
75342;SDS011;63936;51.006;13.764;2023-07-13T05:40:05;8;;;3;;
75342;SDS011;63936;51.006;13.764;2023-07-13T05:42:04;6;;;3;;
75342;SDS011;63936;51.006;13.764;2023-07-13T05:44:02;5;;;3;;
75342;SDS011;63936;51.006;13.764;2023-07-13T05:46:02;6;;;3;;
75342;SDS011;63936;51.006;13.764;2023-07-13T05:48:01;7;;;3;;
75342;SDS011;63936;51.006;13.764;2023-07-13T05:50:02;8;;;3;;
75342;SDS011;63936;51.006;13.764;2023-07-13T05:52:01;14;;;3;;
75342;SDS011;63936;51.006;13.764;2023-07-13T05:54:01;10;;;3;;
75342;SDS011;63936;51.006;13.764;2023-07-13T05:56:01;12;;;3;;
75342;SDS011;63936;51.006;13.764;2023-07-13T05:58:01;14;;;3;;
75342;SDS011;63936;51.006;13.764;2023-07-13T06:00:04;7;;;2;;
75342;SDS011;63936;51.006;13.764;2023-07-13T06:02:01;7;;;2;;
75342;SDS011;63936;51.006;13.764;2023-07-13T06:04:01;6;;;2;;
75342;SDS011;63936;51.006;13.764;2023-07-13T06:06:01;6;;;2;;
75342;SDS011;63936;51.006;13.764;2023-07-13T06:08:01;7;;;2;;
75342;SDS011;63936;51.006;13.764;2023-07-13T06:10:02;6;;;2;;
75342;SDS011;63936;51.006;13.764;2023-07-13T06:12:02;6;;;2;;
75342;SDS011;63936;51.006;13.764;2023-07-13T06:14:02;6;;;2;;
75342;SDS011;63936;51.006;13.764;2023-07-13T06:16:01;8;;;2;;
75342;SDS011;63936;51.006;13.764;2023-07-13T06:18:01;8;;;2;;
75342;SDS011;63936;51.006;13.764;2023-07-13T06:20:02;7;;;2;;
75342;SDS011;63936;51.006;13.764;2023-07-13T06:22:01;6;;;2;;
75342;SDS011;63936;51.006;13.764;2023-07-13T06:24:01;6;;;2;;
75342;SDS011;63936;51.006;13.764;2023-07-13T06:26:02;6;;;2;;
75342;SDS011;63936;51.006;13.764;2023-07-13T06:28:02;7;;;2;;
75342;SDS011;63936;51.006;13.764;2023-07-13T06:30:02;7;;;2;;
75342;SDS011;63936;51.006;13.764;2023-07-13T06:32:01;6;;;2;;
75342;SDS011;63936;51.006;13.764;2023-07-13T06:34:01;5;;;2;;
75342;SDS011;63936;51.006;13.764;2023-07-13T06:36:02;6;;;2;;
75342;SDS011;63936;51.006;13.764;2023-07-13T06:38:01;6;;;2;;
75342;SDS011;63936;51.006;13.764;2023-07-13T06:40:03;5;;;2;;
75342;SDS011;63936;51.006;13.764;2023-07-13T06:42:01;5;;;2;;
75342;SDS011;63936;51.006;13.764;2023-07-13T06:44:01;6;;;1;;
75342;SDS011;63936;51.006;13.764;2023-07-13T06:46:01;6;;;1;;
75342;SDS011;63936;51.006;13.764;2023-07-13T06:48:01;7;;;1;;
75342;SDS011;63936;51.006;13.764;2023-07-13T06:50:02;7;;;1;;
75342;SDS011;63936;51.006;13.764;2023-07-13T06:52:01;6;;;2;;
75342;SDS011;63936;51.006;13.764;2023-07-13T06:54:01;6;;;2;;
75342;SDS011;63936;51.006;13.764;2023-07-13T06:56:02;11;;;2;;
75342;SDS011;63936;51.006;13.764;2023-07-13T06:58:01;12;;;3;;
75342;SDS011;63936;51.006;13.764;2023-07-13T07:00:02;7;;;2;;
75342;SDS011;63936;51.006;13.764;2023-07-13T07:02:01;7;;;2;;
75342;SDS011;63936;51.006;13.764;2023-07-13T07:04:01;6;;;1;;
75342;SDS011;63936;51.006;13.764;2023-07-13T07:06:02;6;;;1;;
75342;SDS011;63936;51.006;13.764;2023-07-13T07:08:01;6;;;2;;
75342;SDS011;63936;51.006;13.764;2023-07-13T07:10:02;6;;;1;;
75342;SDS011;63936;51.006;13.764;2023-07-13T07:12:02;5;;;2;;
75342;SDS011;63936;51.006;13.764;2023-07-13T07:14:01;5;;;2;;
75342;SDS011;63936;51.006;13.764;2023-07-13T07:16:02;6;;;1;;
75342;SDS011;63936;51.006;13.764;2023-07-13T07:18:02;6;;;1;;
75342;SDS011;63936;51.006;13.764;2023-07-13T07:20:02;6;;;1;;
75342;SDS011;63936;51.006;13.764;2023-07-13T07:22:01;6;;;1;;
75342;SDS011;63936;51.006;13.764;2023-07-13T07:24:01;5;;;1;;
75342;SDS011;63936;51.006;13.764;2023-07-13T07:26:01;5;;;1;;
75342;SDS011;63936;51.006;13.764;2023-07-13T07:28:01;6;;;1;;
75342;SDS011;63936;51.006;13.764;2023-07-13T07:30:02;6;;;1;;
75342;SDS011;63936;51.006;13.764;2023-07-13T07:32:01;8;;;2;;
75342;SDS011;63936;51.006;13.764;2023-07-13T07:34:01;8;;;2;;
75342;SDS011;63936;51.006;13.764;2023-07-13T07:36:01;7;;;1;;
75342;SDS011;63936;51.006;13.764;2023-07-13T07:38:01;7;;;1;;
75342;SDS011;63936;51.006;13.764;2023-07-13T07:40:03;7;;;1;;
75342;SDS011;63936;51.006;13.764;2023-07-13T07:42:01;5;;;1;;
75342;SDS011;63936;51.006;13.764;2023-07-13T07:44:01;5;;;1;;
75342;SDS011;63936;51.006;13.764;2023-07-13T07:46:01;6;;;1;;
75342;SDS011;63936;51.006;13.764;2023-07-13T07:48:01;6;;;1;;
75342;SDS011;63936;51.006;13.764;2023-07-13T07:50:02;5;;;1;;
75342;SDS011;63936;51.006;13.764;2023-07-13T07:52:02;4;;;1;;
75342;SDS011;63936;51.006;13.764;2023-07-13T07:54:02;4;;;1;;
75342;SDS011;63936;51.006;13.764;2023-07-13T07:56:01;4;;;1;;
75342;SDS011;63936;51.006;13.764;2023-07-13T07:58:01;4;;;1;;
75342;SDS011;63936;51.006;13.764;2023-07-13T08:00:02;5;;;1;;
75342;SDS011;63936;51.006;13.764;2023-07-13T08:02:02;6;;;1;;
75342;SDS011;63936;51.006;13.764;2023-07-13T08:04:02;4;;;1;;
75342;SDS011;63936;51.006;13.764;2023-07-13T08:06:01;9;;;1;;
75342;SDS011;63936;51.006;13.764;2023-07-13T08:08:01;5;;;1;;
75342;SDS011;63936;51.006;13.764;2023-07-13T08:10:02;3;;;1;;
75342;SDS011;63936;51.006;13.764;2023-07-13T08:12:01;4;;;1;;
75342;SDS011;63936;51.006;13.764;2023-07-13T08:14:01;4;;;1;;
75342;SDS011;63936;51.006;13.764;2023-07-13T08:16:03;5;;;1;;
75342;SDS011;63936;51.006;13.764;2023-07-13T08:18:01;5;;;1;;
75342;SDS011;63936;51.006;13.764;2023-07-13T08:20:02;5;;;1;;
75342;SDS011;63936;51.006;13.764;2023-07-13T08:22:01;5;;;1;;
75342;SDS011;63936;51.006;13.764;2023-07-13T08:24:01;7;;;1;;
75342;SDS011;63936;51.006;13.764;2023-07-13T08:26:01;7;;;1;;
75342;SDS011;63936;51.006;13.764;2023-07-13T08:28:01;7;;;1;;
75342;SDS011;63936;51.006;13.764;2023-07-13T08:30:02;5;;;1;;
75342;SDS011;63936;51.006;13.764;2023-07-13T08:32:02;4;;;1;;
75342;SDS011;63936;51.006;13.764;2023-07-13T08:34:02;5;;;1;;
75342;SDS011;63936;51.006;13.764;2023-07-13T08:36:01;5;;;1;;
75342;SDS011;63936;51.006;13.764;2023-07-13T08:38:01;6;;;1;;
75342;SDS011;63936;51.006;13.764;2023-07-13T08:40:02;5;;;1;;
75342;SDS011;63936;51.006;13.764;2023-07-13T08:42:01;5;;;1;;
75342;SDS011;63936;51.006;13.764;2023-07-13T08:44:01;4;;;1;;
75342;SDS011;63936;51.006;13.764;2023-07-13T08:46:02;5;;;1;;
75342;SDS011;63936;51.006;13.764;2023-07-13T08:48:02;5;;;1;;
75342;SDS011;63936;51.006;13.764;2023-07-13T08:50:02;5;;;1;;
75342;SDS011;63936;51.006;13.764;2023-07-13T08:52:02;5;;;1;;
75342;SDS011;63936;51.006;13.764;2023-07-13T08:54:02;5;;;1;;
75342;SDS011;63936;51.006;13.764;2023-07-13T08:56:01;5;;;1;;
75342;SDS011;63936;51.006;13.764;2023-07-13T08:58:02;5;;;1;;
75342;SDS011;63936;51.006;13.764;2023-07-13T09:00:02;6;;;1;;
75342;SDS011;63936;51.006;13.764;2023-07-13T09:02:06;5;;;1;;
75342;SDS011;63936;51.006;13.764;2023-07-13T09:04:03;5;;;1;;
75342;SDS011;63936;51.006;13.764;2023-07-13T09:06:01;5;;;1;;
75342;SDS011;63936;51.006;13.764;2023-07-13T09:08:04;5;;;1;;
75342;SDS011;63936;51.006;13.764;2023-07-13T09:10:05;6;;;1;;
75342;SDS011;63936;51.006;13.764;2023-07-13T09:12:02;5;;;1;;
75342;SDS011;63936;51.006;13.764;2023-07-13T09:14:02;4;;;1;;
75342;SDS011;63936;51.006;13.764;2023-07-13T09:16:02;4;;;1;;
75342;SDS011;63936;51.006;13.764;2023-07-13T09:18:03;4;;;1;;
75342;SDS011;63936;51.006;13.764;2023-07-13T09:20:03;4;;;1;;
75342;SDS011;63936;51.006;13.764;2023-07-13T09:22:01;4;;;1;;
75342;SDS011;63936;51.006;13.764;2023-07-13T09:26:02;5;;;1;;
75342;SDS011;63936;51.006;13.764;2023-07-13T09:28:02;5;;;1;;
75342;SDS011;63936;51.006;13.764;2023-07-13T09:30:07;6;;;1;;
75342;SDS011;63936;51.006;13.764;2023-07-13T09:32:02;5;;;1;;
75342;SDS011;63936;51.006;13.764;2023-07-13T09:34:01;7;;;1;;
75342;SDS011;63936;51.006;13.764;2023-07-13T09:36:05;5;;;1;;
75342;SDS011;63936;51.006;13.764;2023-07-13T09:38:04;4;;;1;;
75342;SDS011;63936;51.006;13.764;2023-07-13T09:40:03;4;;;1;;
75342;SDS011;63936;51.006;13.764;2023-07-13T09:42:03;4;;;1;;
75342;SDS011;63936;51.006;13.764;2023-07-13T09:44:06;3;;;1;;
75342;SDS011;63936;51.006;13.764;2023-07-13T09:46:01;4;;;1;;
75342;SDS011;63936;51.006;13.764;2023-07-13T09:48:04;5;;;1;;
75342;SDS011;63936;51.006;13.764;2023-07-13T09:50:03;5;;;1;;
75342;SDS011;63936;51.006;13.764;2023-07-13T09:52:02;5;;;1;;
75342;SDS011;63936;51.006;13.764;2023-07-13T09:54:01;6;;;1;;
75342;SDS011;63936;51.006;13.764;2023-07-13T09:56:02;5;;;1;;
75342;SDS011;63936;51.006;13.764;2023-07-13T09:58:03;5;;;1;;
75342;SDS011;63936;51.006;13.764;2023-07-13T10:00:02;6;;;1;;
75342;SDS011;63936;51.006;13.764;2023-07-13T10:02:01;6;;;1;;
75342;SDS011;63936;51.006;13.764;2023-07-13T10:04:01;4;;;1;;
75342;SDS011;63936;51.006;13.764;2023-07-13T10:06:06;7;;;1;;
75342;SDS011;63936;51.006;13.764;2023-07-13T10:08:01;5;;;1;;
75342;SDS011;63936;51.006;13.764;2023-07-13T10:10:03;6;;;1;;
75342;SDS011;63936;51.006;13.764;2023-07-13T10:12:01;3;;;1;;
75342;SDS011;63936;51.006;13.764;2023-07-13T10:14:02;7;;;1;;
75342;SDS011;63936;51.006;13.764;2023-07-13T10:16:02;4;;;1;;
75342;SDS011;63936;51.006;13.764;2023-07-13T10:18:02;5;;;1;;
75342;SDS011;63936;51.006;13.764;2023-07-13T10:20:03;4;;;1;;
75342;SDS011;63936;51.006;13.764;2023-07-13T10:22:02;5;;;1;;
75342;SDS011;63936;51.006;13.764;2023-07-13T10:24:03;5;;;1;;
75342;SDS011;63936;51.006;13.764;2023-07-13T10:26:01;3;;;1;;
75342;SDS011;63936;51.006;13.764;2023-07-13T10:28:03;3;;;1;;
75342;SDS011;63936;51.006;13.764;2023-07-13T10:30:04;5;;;1;;
75342;SDS011;63936;51.006;13.764;2023-07-13T10:32:01;2;;;0;;
75342;SDS011;63936;51.006;13.764;2023-07-13T10:34:01;5;;;1;;
75342;SDS011;63936;51.006;13.764;2023-07-13T10:36:07;3;;;1;;
75342;SDS011;63936;51.006;13.764;2023-07-13T10:38:02;4;;;1;;
75342;SDS011;63936;51.006;13.764;2023-07-13T10:40:03;5;;;1;;
75342;SDS011;63936;51.006;13.764;2023-07-13T10:42:01;5;;;1;;
75342;SDS011;63936;51.006;13.764;2023-07-13T10:44:01;4;;;1;;
75342;SDS011;63936;51.006;13.764;2023-07-13T10:46:01;4;;;1;;
75342;SDS011;63936;51.006;13.764;2023-07-13T10:48:01;4;;;1;;
75342;SDS011;63936;51.006;13.764;2023-07-13T10:50:02;3;;;1;;
75342;SDS011;63936;51.006;13.764;2023-07-13T11:18:03;7;;;1;;
75342;SDS011;63936;51.006;13.764;2023-07-13T11:20:10;4;;;1;;
75342;SDS011;63936;51.006;13.764;2023-07-13T11:22:02;5;;;1;;
75342;SDS011;63936;51.006;13.764;2023-07-13T11:24:02;4;;;1;;
75342;SDS011;63936;51.006;13.764;2023-07-13T11:26:01;5;;;1;;
75342;SDS011;63936;51.006;13.764;2023-07-13T11:28:06;4;;;1;;
75342;SDS011;63936;51.006;13.764;2023-07-13T11:30:36;4;;;1;;
75342;SDS011;63936;51.006;13.764;2023-07-13T11:32:21;3;;;0;;
75342;SDS011;63936;51.006;13.764;2023-07-13T11:34:01;4;;;1;;
75342;SDS011;63936;51.006;13.764;2023-07-13T11:36:02;4;;;1;;
75342;SDS011;63936;51.006;13.764;2023-07-13T11:38:01;5;;;1;;
75342;SDS011;63936;51.006;13.764;2023-07-13T11:40:02;4;;;1;;
75342;SDS011;63936;51.006;13.764;2023-07-13T11:42:02;4;;;1;;
75342;SDS011;63936;51.006;13.764;2023-07-13T11:44:06;4;;;1;;
75342;SDS011;63936;51.006;13.764;2023-07-13T11:46:19;3;;;1;;
75342;SDS011;63936;51.006;13.764;2023-07-13T11:48:02;4;;;1;;
75342;SDS011;63936;51.006;13.764;2023-07-13T11:50:01;5;;;1;;
75342;SDS011;63936;51.006;13.764;2023-07-13T11:52:01;4;;;1;;
75342;SDS011;63936;51.006;13.764;2023-07-13T11:54:03;4;;;1;;
75342;SDS011;63936;51.006;13.764;2023-07-13T11:56:01;4;;;1;;
75342;SDS011;63936;51.006;13.764;2023-07-13T11:58:01;4;;;1;;
75342;SDS011;63936;51.006;13.764;2023-07-13T12:00:03;5;;;1;;
75342;SDS011;63936;51.006;13.764;2023-07-13T12:02:01;5;;;1;;
75342;SDS011;63936;51.006;13.764;2023-07-13T12:04:02;4;;;1;;
75342;SDS011;63936;51.006;13.764;2023-07-13T12:06:02;3;;;1;;
75342;SDS011;63936;51.006;13.764;2023-07-13T12:08:08;4;;;1;;
75342;SDS011;63936;51.006;13.764;2023-07-13T12:10:04;3;;;1;;
75342;SDS011;63936;51.006;13.764;2023-07-13T12:12:02;4;;;1;;
75342;SDS011;63936;51.006;13.764;2023-07-13T12:14:01;3;;;1;;
75342;SDS011;63936;51.006;13.764;2023-07-13T12:16:01;6;;;1;;
75342;SDS011;63936;51.006;13.764;2023-07-13T12:18:01;3;;;1;;
75342;SDS011;63936;51.006;13.764;2023-07-13T12:20:03;4;;;1;;
75342;SDS011;63936;51.006;13.764;2023-07-13T12:22:01;6;;;1;;
75342;SDS011;63936;51.006;13.764;2023-07-13T12:24:01;3;;;1;;
75342;SDS011;63936;51.006;13.764;2023-07-13T12:26:02;4;;;1;;
75342;SDS011;63936;51.006;13.764;2023-07-13T12:28:02;6;;;1;;
75342;SDS011;63936;51.006;13.764;2023-07-13T12:30:03;5;;;1;;
75342;SDS011;63936;51.006;13.764;2023-07-13T12:32:01;4;;;1;;
75342;SDS011;63936;51.006;13.764;2023-07-13T12:34:02;5;;;1;;
75342;SDS011;63936;51.006;13.764;2023-07-13T12:36:02;5;;;1;;
75342;SDS011;63936;51.006;13.764;2023-07-13T12:38:01;5;;;1;;
75342;SDS011;63936;51.006;13.764;2023-07-13T12:40:02;5;;;1;;
75342;SDS011;63936;51.006;13.764;2023-07-13T12:42:13;6;;;1;;
75342;SDS011;63936;51.006;13.764;2023-07-13T12:44:01;8;;;1;;
75342;SDS011;63936;51.006;13.764;2023-07-13T12:46:02;4;;;1;;
75342;SDS011;63936;51.006;13.764;2023-07-13T12:48:03;4;;;1;;
75342;SDS011;63936;51.006;13.764;2023-07-13T12:50:03;5;;;1;;
75342;SDS011;63936;51.006;13.764;2023-07-13T12:52:02;3;;;1;;
75342;SDS011;63936;51.006;13.764;2023-07-13T12:54:05;5;;;1;;
75342;SDS011;63936;51.006;13.764;2023-07-13T12:56:02;6;;;1;;
75342;SDS011;63936;51.006;13.764;2023-07-13T12:58:03;4;;;1;;
75342;SDS011;63936;51.006;13.764;2023-07-13T13:00:03;6;;;1;;
75342;SDS011;63936;51.006;13.764;2023-07-13T13:02:02;4;;;1;;
75342;SDS011;63936;51.006;13.764;2023-07-13T13:04:02;6;;;1;;
75342;SDS011;63936;51.006;13.764;2023-07-13T13:06:03;4;;;1;;
75342;SDS011;63936;51.006;13.764;2023-07-13T13:08:02;5;;;1;;
75342;SDS011;63936;51.006;13.764;2023-07-13T13:10:07;7;;;1;;
75342;SDS011;63936;51.006;13.764;2023-07-13T13:12:02;4;;;1;;
75342;SDS011;63936;51.006;13.764;2023-07-13T13:14:02;5;;;1;;
75342;SDS011;63936;51.006;13.764;2023-07-13T13:16:02;5;;;1;;
75342;SDS011;63936;51.006;13.764;2023-07-13T13:18:01;9;;;1;;
75342;SDS011;63936;51.006;13.764;2023-07-13T13:20:04;5;;;1;;
75342;SDS011;63936;51.006;13.764;2023-07-13T13:22:01;5;;;1;;
75342;SDS011;63936;51.006;13.764;2023-07-13T13:24:01;5;;;1;;
75342;SDS011;63936;51.006;13.764;2023-07-13T13:26:01;5;;;1;;
75342;SDS011;63936;51.006;13.764;2023-07-13T13:28:02;6;;;1;;